createdAt,value
2023-04-29T00:01:59.181Z,100851.59
2023-04-29T00:04:27.525Z,100847.22
2023-04-29T00:06:55.999Z,100855.25
2023-04-29T00:09:24.120Z,100850.84
2023-04-29T00:11:52.197Z,100845.50
2023-04-29T00:14:21.731Z,100841.84
2023-04-29T00:16:49.921Z,100834.78
2023-04-29T00:19:18.404Z,100832.22
2023-04-29T00:21:46.481Z,100838.19
2023-04-29T00:24:14.549Z,100839.03
2023-04-29T00:26:42.682Z,100837.34
2023-04-29T00:29:11.024Z,100836.50
2023-04-29T00:31:40.584Z,100838.19
2023-04-29T00:34:08.702Z,100824.34
2023-04-29T00:36:36.781Z,100834.78
2023-04-29T00:39:05.005Z,100829.44
2023-04-29T00:41:34.252Z,100840.00
2023-04-29T00:44:02.394Z,100831.16
2023-04-29T00:46:30.527Z,100836.50
2023-04-29T00:49:00.456Z,100824.19
2023-04-29T00:51:29.309Z,100830.16
2023-04-29T00:53:57.636Z,100825.78
2023-04-29T00:56:25.808Z,100820.44
2023-04-29T00:58:54.143Z,100824.06
2023-04-29T01:01:22.450Z,100818.72
2023-04-29T01:03:51.160Z,100823.13
2023-04-29T01:06:33.104Z,100823.25
2023-04-29T01:09:20.103Z,100823.25
2023-04-29T01:11:56.801Z,100821.53
2023-04-29T01:14:27.826Z,100825.06
2023-04-29T01:17:01.319Z,100826.06
2023-04-29T01:19:45.646Z,100823.25
2023-04-29T01:22:17.736Z,100822.38
2023-04-29T01:24:48.371Z,100826.88
2023-04-29T01:27:26.749Z,100809.97
2023-04-29T01:30:01.340Z,100815.22
2023-04-29T01:32:42.271Z,100817.03
2023-04-29T01:35:26.968Z,100806.31
2023-04-29T01:38:04.108Z,100804.63
2023-04-29T01:40:44.393Z,100809.97
2023-04-29T01:43:14.089Z,100794.72
2023-04-29T01:45:42.495Z,100804.63
2023-04-29T01:48:11.524Z,100804.63
2023-04-29T01:50:39.596Z,100799.28
2023-04-29T01:53:08.426Z,100801.22
2023-04-29T01:55:37.978Z,100801.94
2023-04-29T01:58:05.992Z,100804.63
2023-04-29T02:00:34.121Z,100804.63
2023-04-29T02:03:02.278Z,100792.19
2023-04-29T02:05:33.961Z,100802.91
2023-04-29T02:08:02.811Z,100799.28
2023-04-29T02:10:30.986Z,100804.63
2023-04-29T02:13:01.391Z,100793.91
2023-04-29T02:15:29.987Z,100793.06
2023-04-29T02:17:58.056Z,100784.88
2023-04-29T02:20:26.182Z,100791.22
2023-04-29T02:22:54.230Z,100780.53
2023-04-29T02:25:22.305Z,100793.91
2023-04-29T02:27:50.441Z,100784.88
2023-04-29T02:30:20.559Z,100782.34
2023-04-29T02:32:48.611Z,100781.34
2023-04-29T02:35:16.858Z,100772.47
2023-04-29T02:37:45.034Z,100771.34
2023-04-29T02:40:13.947Z,100774.16
2023-04-29T02:42:42.577Z,100770.75
2023-04-29T02:45:12.180Z,100768.81
2023-04-29T02:47:41.657Z,100761.78
2023-04-29T02:50:10.191Z,100767.13
2023-04-29T02:52:38.550Z,100763.47
2023-04-29T02:55:07.352Z,100762.47
2023-04-29T02:57:35.438Z,100757.09
2023-04-29T03:00:04.021Z,100761.50
2023-04-29T03:02:32.346Z,100759.78
2023-04-29T03:05:01.889Z,100756.16
2023-04-29T03:07:30.165Z,100754.44
2023-04-29T03:09:58.395Z,100754.44
2023-04-29T03:12:26.498Z,100745.69
2023-04-29T03:14:54.560Z,100749.06
2023-04-29T03:17:22.651Z,100745.44
2023-04-29T03:19:51.527Z,100745.69
2023-04-29T03:22:21.386Z,100745.44
2023-04-29T03:24:49.406Z,100733.00
2023-04-29T03:27:17.879Z,100742.88
2023-04-29T03:29:45.888Z,100736.69
2023-04-29T03:32:13.951Z,100735.81
2023-04-29T03:34:42.014Z,100730.47
2023-04-29T03:37:10.050Z,100731.31
2023-04-29T03:39:39.501Z,100732.19
2023-04-29T03:42:07.539Z,100731.31
2023-04-29T03:44:35.627Z,100732.19
2023-04-29T03:47:03.683Z,100738.34
2023-04-29T03:49:31.727Z,100729.38
2023-04-29T03:51:59.832Z,100710.97
2023-04-29T03:54:28.200Z,100718.91
2023-04-29T03:56:57.655Z,100722.28
2023-04-29T03:59:25.669Z,100717.78
2023-04-29T04:01:54.511Z,100715.97
2023-04-29T04:04:22.989Z,100716.94
2023-04-29T04:06:51.947Z,100710.63
2023-04-29T04:09:20.276Z,100691.22
2023-04-29T04:11:48.404Z,100708.19
2023-04-29T04:14:18.645Z,100708.19
2023-04-29T04:16:47.176Z,100714.38
2023-04-29T04:19:15.274Z,100636.28
2023-04-29T04:21:43.648Z,100716.94
2023-04-29T04:24:11.786Z,100717.19
2023-04-29T04:26:39.849Z,100713.56
2023-04-29T04:29:07.973Z,100710.75
2023-04-29T04:31:37.489Z,100711.56
2023-04-29T04:34:05.608Z,100705.38
2023-04-29T04:36:33.791Z,100705.38
2023-04-29T04:39:01.914Z,100701.84
2023-04-29T04:41:31.644Z,100698.19
2023-04-29T04:43:59.833Z,100687.59
2023-04-29T04:46:27.955Z,100693.81
2023-04-29T04:48:57.477Z,100699.19
2023-04-29T04:51:25.530Z,100699.19
2023-04-29T04:53:53.637Z,100699.19
2023-04-29T04:56:22.111Z,100683.66
2023-04-29T04:58:50.375Z,100694.53
2023-04-29T05:01:18.566Z,100697.50
2023-04-29T05:03:47.067Z,100693.81
2023-04-29T05:06:16.791Z,100692.13
2023-04-29T05:08:44.939Z,100684.78
2023-04-29T05:11:18.771Z,100694.53
2023-04-29T05:13:46.960Z,100682.13
2023-04-29T05:16:15.372Z,100604.59
2023-04-29T05:18:45.262Z,100677.75
2023-04-29T05:21:14.492Z,100668.72
2023-04-29T05:23:44.958Z,100668.72
2023-04-29T05:26:13.032Z,100656.31
2023-04-29T05:28:41.147Z,100656.31
2023-04-29T05:31:09.761Z,100655.47
2023-04-29T05:33:37.977Z,100663.38
2023-04-29T05:36:06.765Z,100654.38
2023-04-29T05:38:34.903Z,100658.00
2023-04-29T05:41:05.044Z,100656.19
2023-04-29T05:43:33.247Z,100659.72
2023-04-29T05:46:01.648Z,100658.00
2023-04-29T05:48:30.515Z,100665.09
2023-04-29T05:50:58.680Z,100659.72
2023-04-29T05:53:26.776Z,100652.66
2023-04-29T05:55:54.854Z,100656.19
2023-04-29T05:58:25.729Z,100650.81
2023-04-29T06:00:53.839Z,100653.50
2023-04-29T06:03:22.247Z,100649.00
2023-04-29T06:05:51.036Z,100649.28
2023-04-29T06:08:19.603Z,100650.69
2023-04-29T06:10:48.129Z,100644.47
2023-04-29T06:13:16.221Z,100656.06
2023-04-29T06:15:46.049Z,100649.84
2023-04-29T06:18:14.484Z,100645.34
2023-04-29T06:20:42.560Z,100656.06
2023-04-29T06:23:10.652Z,100642.66
2023-04-29T06:25:38.834Z,100647.88
2023-04-29T06:28:08.524Z,100637.44
2023-04-29T06:30:36.649Z,100643.38
2023-04-29T06:33:06.210Z,100639.25
2023-04-29T06:35:34.371Z,100642.53
2023-04-29T06:38:02.444Z,100641.66
2023-04-29T06:40:30.772Z,100641.66
2023-04-29T06:42:58.927Z,100641.66
2023-04-29T06:45:27.449Z,100638.03
2023-04-29T06:47:55.790Z,100640.69
2023-04-29T06:50:26.435Z,100638.03
2023-04-29T06:52:54.583Z,100643.38
2023-04-29T06:55:22.662Z,100636.31
2023-04-29T06:57:50.775Z,100642.53
2023-04-29T07:00:21.163Z,100628.28
2023-04-29T07:02:49.296Z,100622.91
2023-04-29T07:05:17.661Z,100614.06
2023-04-29T07:07:47.291Z,100615.72
2023-04-29T07:10:15.518Z,100614.88
2023-04-29T07:12:43.642Z,100606.84
2023-04-29T07:15:12.085Z,100607.56
2023-04-29T07:17:40.182Z,100605.88
2023-04-29T07:20:09.638Z,100598.81
2023-04-29T07:22:37.748Z,100605.88
2023-04-29T07:25:07.658Z,100605.88
2023-04-29T07:27:36.157Z,100605.88
2023-04-29T07:30:04.914Z,100598.81
2023-04-29T07:32:33.217Z,100598.81
2023-04-29T07:35:01.756Z,100598.81
2023-04-29T07:37:29.943Z,100609.53
2023-04-29T07:39:58.045Z,100605.88
2023-04-29T07:42:27.773Z,100605.88
2023-04-29T07:44:56.004Z,100595.16
2023-04-29T07:47:24.147Z,100599.66
2023-04-29T07:49:52.827Z,100610.38
2023-04-29T07:52:20.979Z,100607.69
2023-04-29T07:54:49.147Z,100595.16
2023-04-29T07:57:17.614Z,100609.53
2023-04-29T07:59:47.102Z,100601.34
2023-04-29T08:02:16.933Z,100598.81
2023-04-29T08:04:45.399Z,100599.66
2023-04-29T08:07:13.892Z,100593.44
2023-04-29T08:09:42.073Z,100589.81
2023-04-29T08:12:10.548Z,100598.81
2023-04-29T08:14:38.658Z,100596.13
2023-04-29T08:17:08.795Z,100589.81
2023-04-29T08:19:37.061Z,100594.31
2023-04-29T08:22:05.739Z,100596.84
2023-04-29T08:24:35.164Z,100592.75
2023-04-29T08:27:03.701Z,100604.16
2023-04-29T08:29:34.394Z,100598.81
2023-04-29T08:32:02.602Z,100592.63
2023-04-29T08:34:33.613Z,100573.69
2023-04-29T08:37:01.687Z,100603.34
2023-04-29T08:39:30.490Z,100606.03
2023-04-29T08:44:27.754Z,100611.38
2023-04-29T08:46:56.584Z,100602.47
2023-04-29T08:49:24.688Z,100602.47
2023-04-29T08:51:54.243Z,100608.69
2023-04-29T08:54:22.348Z,100609.53
2023-04-29T08:56:52.974Z,100598.81
2023-04-29T08:59:22.219Z,100593.44
2023-04-29T09:01:54.295Z,100605.88
2023-04-29T09:04:36.218Z,100592.63
2023-04-29T09:07:06.871Z,100597.97
2023-04-29T09:09:35.467Z,100597.13
2023-04-29T09:12:03.581Z,100602.47
2023-04-29T09:14:34.372Z,100604.16
2023-04-29T09:17:02.529Z,100605.88
2023-04-29T09:19:32.162Z,100602.47
2023-04-29T09:22:01.025Z,100597.13
2023-04-29T09:24:32.024Z,100600.53
2023-04-29T09:27:00.572Z,100594.31
2023-04-29T09:29:29.555Z,100596.13
2023-04-29T09:32:01.541Z,100594.31
2023-04-29T09:34:35.823Z,100584.47
2023-04-29T09:37:04.047Z,100588.09
2023-04-29T09:39:41.085Z,100589.81
2023-04-29T09:42:09.732Z,100588.09
2023-04-29T09:44:37.971Z,100587.28
2023-04-29T09:47:07.846Z,100588.09
2023-04-29T09:49:39.786Z,100582.75
2023-04-29T09:52:09.703Z,100576.69
2023-04-29T09:54:39.874Z,100583.72
2023-04-29T09:57:10.533Z,100588.09
2023-04-29T09:59:40.791Z,100515.00
2023-04-29T10:02:15.676Z,100582.75
2023-04-29T10:04:46.918Z,100581.91
2023-04-29T10:07:17.229Z,100581.06
2023-04-29T10:09:47.798Z,100581.06
2023-04-29T10:12:20.359Z,100576.41
2023-04-29T10:14:56.408Z,100588.09
2023-04-29T10:17:31.927Z,100563.59
2023-04-29T10:20:05.923Z,100577.38
2023-04-29T10:22:37.648Z,100573.75
2023-04-29T10:25:08.875Z,100563.03
2023-04-29T10:27:38.774Z,100555.94
2023-04-29T10:30:11.385Z,100561.31
2023-04-29T10:32:50.554Z,100556.94
2023-04-29T10:35:23.632Z,100539.59
2023-04-29T10:37:53.144Z,100561.03
2023-04-29T10:40:28.981Z,100555.00
2023-04-29T10:42:59.668Z,100557.66
2023-04-29T10:45:31.361Z,100557.94
2023-04-29T10:48:16.704Z,100565.44
2023-04-29T10:51:04.583Z,100565.56
2023-04-29T10:53:32.954Z,100556.81
2023-04-29T10:56:06.491Z,100562.16
2023-04-29T10:58:42.238Z,100546.97
2023-04-29T11:01:12.697Z,100550.59
2023-04-29T11:03:59.605Z,100561.03
2023-04-29T11:06:41.754Z,100546.97
2023-04-29T11:09:12.130Z,100559.34
2023-04-29T11:11:49.063Z,100554.00
2023-04-29T11:14:24.983Z,100565.56
2023-04-29T11:16:55.082Z,100570.06
2023-04-29T11:19:25.933Z,100573.59
2023-04-29T11:22:10.363Z,100562.03
2023-04-29T11:24:38.743Z,100552.31
2023-04-29T11:27:07.231Z,100554.00
2023-04-29T11:29:37.188Z,100546.97
2023-04-29T11:32:05.443Z,100561.31
2023-04-29T11:34:33.735Z,100557.66
2023-04-29T11:37:01.931Z,100561.16
2023-04-29T11:39:29.982Z,100568.38
2023-04-29T11:42:05.109Z,100567.38
2023-04-29T11:44:37.681Z,100571.06
2023-04-29T11:47:06.260Z,100548.47
2023-04-29T11:49:35.412Z,100569.06
2023-04-29T11:52:03.616Z,100568.38
2023-04-29T11:54:32.156Z,100571.75
2023-04-29T11:57:00.360Z,100546.91
2023-04-29T11:59:29.504Z,100579.78
2023-04-29T12:02:00.612Z,100581.63
2023-04-29T12:04:28.902Z,100576.28
2023-04-29T12:06:59.874Z,100575.41
2023-04-29T12:09:28.026Z,100581.63
2023-04-29T12:11:56.361Z,100575.41
2023-04-29T12:14:24.497Z,100575.41
2023-04-29T12:16:54.263Z,100577.09
2023-04-29T12:19:23.922Z,100582.47
2023-04-29T12:21:52.477Z,100593.19
2023-04-29T12:24:22.860Z,100593.19
2023-04-29T12:26:51.046Z,100588.09
2023-04-29T12:29:23.703Z,100586.13
2023-04-29T12:31:53.004Z,100582.47
2023-04-29T12:34:28.600Z,100581.63
2023-04-29T12:36:57.806Z,100582.47
2023-04-29T12:39:27.187Z,100580.78
2023-04-29T12:41:57.805Z,100588.81
2023-04-29T12:44:26.420Z,100560.72
2023-04-29T12:46:57.699Z,100597.72
2023-04-29T12:49:29.630Z,100587.00
2023-04-29T12:51:57.776Z,100576.28
2023-04-29T12:54:25.941Z,100589.53
2023-04-29T12:56:54.088Z,100588.81
2023-04-29T12:59:22.188Z,100603.88
2023-04-29T13:01:50.435Z,100595.16
2023-04-29T13:04:18.844Z,100593.72
2023-04-29T13:06:48.602Z,100602.22
2023-04-29T13:09:18.829Z,100591.50
2023-04-29T13:11:47.773Z,100603.88
2023-04-29T13:14:16.507Z,100593.19
2023-04-29T13:16:44.746Z,100600.25
2023-04-29T13:19:25.660Z,100587.81
2023-04-29T13:21:59.820Z,100586.13
2023-04-29T13:24:27.885Z,100595.16
2023-04-29T13:26:56.123Z,100584.72
2023-04-29T13:29:24.273Z,100602.22
2023-04-29T13:31:52.408Z,100589.81
2023-04-29T13:34:21.374Z,100596.84
2023-04-29T13:36:49.620Z,100590.63
2023-04-29T13:39:20.390Z,100607.56
2023-04-29T13:41:48.682Z,100589.81
2023-04-29T13:44:24.901Z,100587.13
2023-04-29T13:46:57.540Z,100584.47
2023-04-29T13:49:42.713Z,100586.13
2023-04-29T13:53:10.011Z,100587.28
2023-04-29T13:55:58.725Z,100582.75
2023-04-29T14:05:26.714Z,100588.09
2023-04-29T14:07:54.909Z,100593.44
2023-04-29T14:10:24.935Z,100593.44
2023-04-29T14:12:53.069Z,100589.81
2023-04-29T14:15:21.161Z,100598.81
2023-04-29T14:17:50.392Z,100589.81
2023-04-29T14:20:18.612Z,100600.53
2023-04-29T14:22:46.693Z,100592.50
2023-04-29T14:25:14.927Z,100614.88
2023-04-29T14:27:44.838Z,100604.16
2023-04-29T14:30:13.543Z,100606.72
2023-04-29T14:32:41.662Z,100616.59
2023-04-29T14:35:11.153Z,100602.22
2023-04-29T14:37:39.731Z,100600.53
2023-04-29T14:40:09.430Z,100601.34
2023-04-29T14:42:37.602Z,100603.06
2023-04-29T14:45:08.390Z,100600.53
2023-04-29T14:47:36.598Z,100600.53
2023-04-29T14:50:05.064Z,100612.06
2023-04-29T14:52:33.147Z,100602.22
2023-04-29T14:55:01.749Z,100612.91
2023-04-29T14:57:30.049Z,100615.72
2023-04-29T14:59:58.285Z,100602.22
2023-04-29T15:02:28.290Z,100607.56
2023-04-29T15:04:56.630Z,100600.53
2023-04-29T15:07:24.914Z,100600.53
2023-04-29T15:09:53.024Z,100604.88
2023-04-29T15:12:22.346Z,100602.22
2023-04-29T15:14:50.800Z,100608.41
2023-04-29T15:17:18.938Z,100621.94
2023-04-29T15:19:48.516Z,100607.56
2023-04-29T15:22:16.649Z,100623.63
2023-04-29T15:24:45.135Z,100608.41
2023-04-29T15:27:13.233Z,100614.59
2023-04-29T15:29:41.806Z,100618.28
2023-04-29T15:32:10.728Z,100616.59
2023-04-29T15:34:38.877Z,100616.59
2023-04-29T15:37:08.539Z,100616.59
2023-04-29T15:39:36.727Z,100611.25
2023-04-29T15:42:05.056Z,100638.03
2023-04-29T15:44:34.138Z,100624.63
2023-04-29T15:47:02.791Z,100614.75
2023-04-29T15:49:31.130Z,100621.94
2023-04-29T15:51:59.246Z,100630.81
2023-04-29T15:54:28.801Z,100634.34
2023-04-29T15:56:57.190Z,100634.34
2023-04-29T15:59:25.391Z,100629.84
2023-04-29T16:01:53.645Z,100634.34
2023-04-29T16:04:21.801Z,100634.34
2023-04-29T16:06:50.094Z,100629.25
2023-04-29T16:09:18.142Z,100627.31
2023-04-29T16:11:47.625Z,100627.31
2023-04-29T16:14:15.744Z,100638.84
2023-04-29T16:16:43.892Z,100630.81
2023-04-29T16:19:11.982Z,100634.34
2023-04-29T16:21:40.085Z,100628.13
2023-04-29T16:24:08.393Z,100646.75
2023-04-29T16:26:37.051Z,100634.34
2023-04-29T16:29:06.608Z,100638.72
2023-04-29T16:31:34.774Z,100644.06
2023-04-29T16:34:03.446Z,100639.72
2023-04-29T16:36:32.722Z,100650.41
2023-04-29T16:39:00.849Z,100651.28
2023-04-29T16:41:29.136Z,100646.75
2023-04-29T16:43:57.458Z,100647.59
2023-04-29T16:46:27.328Z,100643.25
2023-04-29T16:48:56.896Z,100640.84
2023-04-29T16:51:26.447Z,100639.72
2023-04-29T16:53:54.775Z,100645.91
2023-04-29T16:56:23.235Z,100644.06
2023-04-29T16:58:51.297Z,100655.78
2023-04-29T17:01:19.888Z,100655.78
2023-04-29T17:03:50.264Z,100646.75
2023-04-29T17:06:18.604Z,100651.28
2023-04-29T17:08:47.513Z,100650.41
2023-04-29T17:11:18.330Z,100653.09
2023-04-29T17:13:46.479Z,100652.09
2023-04-29T17:16:15.530Z,100650.41
2023-04-29T17:18:43.865Z,100641.53
2023-04-29T17:21:13.425Z,100645.06
2023-04-29T17:23:41.436Z,100653.09
2023-04-29T17:26:09.472Z,100650.41
2023-04-29T17:28:37.580Z,100648.75
2023-04-29T17:31:06.433Z,100650.41
2023-04-29T17:33:35.627Z,100658.47
2023-04-29T17:36:04.396Z,100668.19
2023-04-29T17:38:34.254Z,100649.97
2023-04-29T17:41:03.181Z,100660.41
2023-04-29T17:43:33.298Z,100652.38
2023-04-29T17:46:01.451Z,100663.69
2023-04-29T17:48:29.561Z,100669.91
2023-04-29T17:50:57.593Z,100661.28
2023-04-29T17:53:26.329Z,100661.13
2023-04-29T17:55:55.787Z,100664.81
2023-04-29T17:58:23.826Z,100673.66
2023-04-29T18:00:52.323Z,100664.81
2023-04-29T18:03:20.570Z,100671.84
2023-04-29T18:05:48.684Z,100680.88
2023-04-29T18:08:16.738Z,100679.88
2023-04-29T18:10:44.894Z,100678.06
2023-04-29T18:13:14.335Z,100682.56
2023-04-29T18:15:42.989Z,100680.16
2023-04-29T18:18:11.109Z,100687.91
2023-04-29T18:20:40.808Z,100680.88
2023-04-29T18:23:08.841Z,100687.91
2023-04-29T18:25:37.682Z,100683.38
2023-04-29T18:28:23.099Z,100691.59
2023-04-29T18:30:53.586Z,100696.94
2023-04-29T18:33:23.290Z,100696.94
2023-04-29T18:35:51.752Z,100691.59
2023-04-29T18:38:19.779Z,100690.75
2023-04-29T18:40:48.552Z,100699.63
2023-04-29T18:43:18.284Z,100702.31
2023-04-29T18:45:46.726Z,100708.50
2023-04-29T18:48:16.278Z,100709.34
2023-04-29T18:50:44.544Z,100713.03
2023-04-29T18:53:12.619Z,100726.41
2023-04-29T18:55:40.740Z,100723.75
2023-04-29T18:58:09.361Z,100729.91
2023-04-29T19:00:37.450Z,100723.75
2023-04-29T19:03:06.284Z,100726.41
2023-04-29T19:05:35.899Z,100734.44
2023-04-29T19:08:04.009Z,100731.78
2023-04-29T19:10:32.130Z,100736.28
2023-04-29T19:13:00.266Z,100736.13
2023-04-29T19:15:32.037Z,100733.00
2023-04-29T19:18:00.285Z,100745.16
2023-04-29T19:20:28.740Z,100747.84
2023-04-29T19:22:58.257Z,100750.53
2023-04-29T19:25:27.050Z,100750.53
2023-04-29T19:27:55.181Z,100756.72
2023-04-29T19:30:23.272Z,100751.47
2023-04-29T19:32:51.413Z,100751.63
2023-04-29T19:35:19.567Z,100751.47
2023-04-29T19:37:47.632Z,100754.16
2023-04-29T19:40:17.278Z,100758.81
2023-04-29T19:42:45.527Z,100764.88
2023-04-29T19:45:13.666Z,100758.69
2023-04-29T19:47:41.806Z,100757.84
2023-04-29T19:50:10.847Z,100761.25
2023-04-29T19:52:38.948Z,100759.53
2023-04-29T19:55:09.067Z,100757.56
2023-04-29T19:57:39.024Z,100758.44
2023-04-29T20:00:09.522Z,100766.59
2023-04-29T20:02:37.739Z,100770.97
2023-04-29T20:05:06.809Z,100768.28
2023-04-29T20:07:34.933Z,100772.22
2023-04-29T20:10:03.065Z,100783.50
2023-04-29T20:12:31.446Z,100775.59
2023-04-29T20:15:01.108Z,100784.34
2023-04-29T20:17:29.561Z,100788.03
2023-04-29T20:19:57.821Z,100804.09
2023-04-29T20:22:26.002Z,100803.25
2023-04-29T20:24:54.073Z,100793.38
2023-04-29T20:27:22.286Z,100804.09
2023-04-29T20:29:50.468Z,100798.75
2023-04-29T20:32:19.948Z,100798.75
2023-04-29T20:34:48.416Z,100805.06
2023-04-29T20:37:16.553Z,100805.78
2023-04-29T20:39:44.671Z,100799.69
2023-04-29T20:42:12.859Z,100808.00
2023-04-29T20:44:40.987Z,100809.59
2023-04-29T20:47:09.800Z,100818.44
2023-04-29T20:49:39.325Z,100808.72
2023-04-29T20:52:07.546Z,100816.75
2023-04-29T20:54:36.096Z,100815.06
2023-04-29T20:57:05.709Z,100823.13
2023-04-29T20:59:34.359Z,100818.28
2023-04-29T21:02:02.816Z,100830.16
2023-04-29T21:04:30.942Z,100825.78
2023-04-29T21:07:03.092Z,100797.19
2023-04-29T21:09:31.281Z,100825.78
2023-04-29T21:12:01.503Z,100839.88
2023-04-29T21:14:29.599Z,100831.16
2023-04-29T21:16:57.729Z,100838.19
2023-04-29T21:19:26.150Z,100828.34
2023-04-29T21:21:54.252Z,100829.69
2023-04-29T21:24:24.285Z,100833.81
2023-04-29T21:26:52.377Z,100841.00
2023-04-29T21:29:20.683Z,100840.13
2023-04-29T21:31:48.900Z,100841.84
2023-04-29T21:34:17.494Z,100836.50
2023-04-29T21:36:45.578Z,100831.66
2023-04-29T21:39:13.728Z,100834.78
2023-04-29T21:41:45.357Z,100843.53
2023-04-29T21:44:13.628Z,100848.91
2023-04-29T21:46:42.238Z,100850.59
2023-04-29T21:49:10.873Z,100843.81
2023-04-29T21:51:39.144Z,100854.25
2023-04-29T21:54:08.615Z,100857.06
2023-04-29T21:56:36.839Z,100849.91
2023-04-29T21:59:06.381Z,100852.56
2023-04-29T22:01:59.678Z,100860.59
2023-04-29T22:04:28.293Z,100857.94
2023-04-29T22:06:56.804Z,100857.19
2023-04-29T22:09:24.829Z,100861.56
2023-04-29T22:11:52.939Z,100850.56
2023-04-29T22:14:22.356Z,100862.44
2023-04-29T22:16:50.407Z,100872.28
2023-04-29T22:19:18.636Z,100874.97
2023-04-29T22:21:46.882Z,100883.00
2023-04-29T22:24:14.922Z,100879.34
2023-04-29T22:26:42.996Z,100874.00
2023-04-29T22:29:11.516Z,100877.63
2023-04-29T22:31:40.955Z,100884.72
2023-04-29T22:34:09.029Z,100886.53
2023-04-29T22:36:39.796Z,100892.75
2023-04-29T22:39:07.994Z,100889.22
2023-04-29T22:41:36.018Z,100899.06
2023-04-29T22:44:04.117Z,100903.47
2023-04-29T22:46:33.351Z,100890.91
2023-04-29T22:49:03.139Z,100897.13
2023-04-29T22:51:31.752Z,100898.09
2023-04-29T22:53:59.885Z,100906.16
2023-04-29T22:56:28.968Z,100906.16
2023-04-29T22:58:57.072Z,100904.44
2023-04-29T23:01:25.258Z,100900.91
2023-04-29T23:03:53.317Z,100900.78
2023-04-29T23:06:22.947Z,100904.44
2023-04-29T23:08:51.139Z,100908.81
2023-04-29T23:11:19.243Z,100906.16
2023-04-29T23:13:47.320Z,100911.50
2023-04-29T23:16:15.516Z,100888.44
2023-04-29T23:18:43.669Z,100908.09
2023-04-29T23:21:11.744Z,100915.13
2023-04-29T23:23:41.237Z,100913.19
2023-04-29T23:26:09.363Z,100906.16
2023-04-29T23:28:37.531Z,100913.19
2023-04-29T23:31:06.170Z,100914.19
2023-04-29T23:33:34.274Z,100912.34
2023-04-29T23:36:02.388Z,100916.84
2023-04-29T23:38:30.518Z,100914.19
2023-04-29T23:41:00.026Z,100916.84
2023-04-29T23:43:28.085Z,100916.84
2023-04-29T23:45:56.279Z,100922.22
2023-04-29T23:48:24.392Z,100923.91
2023-04-29T23:50:52.454Z,100922.22
2023-04-29T23:53:20.566Z,100922.22
2023-04-29T23:55:49.977Z,100917.69
2023-04-29T23:58:19.474Z,100927.56
